Cielo Mare — V7TK9 — position and weather

sailwx.info

Track history (hours):
 
Tides and Currents Weather Stations Pressure Air Temp Water Temp Dewpoint Dewpoint Depression Visibility Wind Speed Wind Dir Waves Ship Positions

Cielo Mare

Last reported at 2018-Jun-27 16:21 UTC. Time now 2018-Jul-19 13:36 UTC.
Position N 54°41' W 130°56'.
Warning: this ship's position is 21 days out of date.

Length 42 m; draft 2.3 m.

Type: Pleasure craft. MMSI: 538070708.

Date/timePositionNaut miles runAvg speedWind from/ knotsBaromVisibWave heightAir tempDewpointWater temp
2018-Jun-27 16:21N 54°41' W 130°56'613.8
2018-Jun-27 15:55N 54°39' W 130°47'512.6
2018-Jun-27 15:30N 54°34' W 130°43'613.0
2018-Jun-27 15:00N 54°27' W 130°40'713.0
2018-Jun-27 14:30N 54°21' W 130°36'612.3
2018-Jun-27 14:00N 54°16' W 130°31'611.5
2018-Jun-27 13:30N 54°13' W 130°22'5 9.6
2018-Jun-27 13:00N 54°18' W 130°21'2 3.5
2018-Jun-27 12:30N 54°19' W 130°19'0 0.0
2018-Jun-27 12:00N 54°19' W 130°19'0 0.0
2018-Jun-27 11:30N 54°19' W 130°19'0 0.0
2018-Jun-27 11:00N 54°19' W 130°19'0 0.0
2018-Jun-27 10:30N 54°19' W 130°19'0 0.0
2018-Jun-27 10:00N 54°19' W 130°19'0 0.0
2018-Jun-27 09:30N 54°19' W 130°19'0 0.0
2018-Jun-27 09:00N 54°19' W 130°19'0 0.0
2018-Jun-27 08:30N 54°19' W 130°19'0 0.0
2018-Jun-27 08:00N 54°19' W 130°19'0 0.0
2018-Jun-27 07:30N 54°19' W 130°19'0 0.0
2018-Jun-27 07:00N 54°19' W 130°19'0 0.0
2018-Jun-27 06:30N 54°19' W 130°19'0 0.0
2018-Jun-27 06:00N 54°19' W 130°19'0 0.0
2018-Jun-27 05:30N 54°19' W 130°19'0 0.0
2018-Jun-27 05:00N 54°19' W 130°19'0 0.0
2018-Jun-27 04:30N 54°19' W 130°19'0 0.0
2018-Jun-27 04:00N 54°19' W 130°19'0 0.0
2018-Jun-27 03:30N 54°19' W 130°19'1 1.2
2018-Jun-27 03:00N 54°19' W 130°20'4 8.7
2018-Jun-27 02:30N 54°14' W 130°21'713.0
2018-Jun-27 02:00N 54°08' W 130°19'612.4
2018-Jun-27 01:30N 54°02' W 130°15'612.7
2018-Jun-27 01:00N 53°56' W 130°11'612.0
2018-Jun-27 00:30N 53°52' W 130°04'612.2
2018-Jun-26 23:59N 53°48' W 129°57'9711.2
2018-Jun-26 15:15N 52°26' W 128°28'312.6
2018-Jun-26 15:00N 52°23' W 128°31'612.1
2018-Jun-26 14:30N 52°17' W 128°28'812.2
2018-Jun-26 13:49N 52°14' W 128°15'412.7
2018-Jun-26 13:29N 52°13' W 128°08'4 8.4
2018-Jun-26 12:58N 52°09' W 128°05'0 0.2
2018-Jun-26 12:29N 52°09' W 128°05'0 0.0
2018-Jun-26 12:00N 52°09' W 128°05'0 0.0
2018-Jun-26 11:30N 52°09' W 128°05'0 0.0
2018-Jun-26 11:00N 52°09' W 128°05'0 0.0
2018-Jun-26 10:21N 52°09' W 128°05'0 0.0
2018-Jun-26 10:00N 52°09' W 128°05'0 0.0
2018-Jun-26 09:27N 52°09' W 128°05'0 0.0
2018-Jun-26 09:00N 52°09' W 128°05'0 0.0
2018-Jun-26 08:17N 52°09' W 128°05'0 0.1
2018-Jun-26 07:53N 52°09' W 128°05'0 0.0
2018-Jun-26 07:21N 52°09' W 128°05'0 0.1
2018-Jun-26 07:00N 52°09' W 128°05'0 0.0
2018-Jun-26 06:30N 52°09' W 128°05'0 0.0
2018-Jun-26 06:00N 52°09' W 128°05'0 0.0
2018-Jun-26 05:14N 52°09' W 128°05'0 0.0
2018-Jun-26 02:48N 52°09' W 128°05'2 7.1
2018-Jun-26 02:30N 52°09' W 128°08'510.9
2018-Jun-26 02:00N 52°05' W 128°04'511.0
2018-Jun-26 01:30N 52°03' W 127°55'612.0
2018-Jun-26 01:00N 51°57' W 127°55'612.3
2018-Jun-26 00:30N 51°51' W 127°55'612.9
2018-Jun-26 00:00N 51°44' W 127°55'612.5
2018-Jun-25 23:30N 51°38' W 127°54'612.7
2018-Jun-25 23:00N 51°32' W 127°51'712.7
2018-Jun-25 22:28N 51°25' W 127°51'612.6
2018-Jun-25 21:59N 51°19' W 127°51'912.8
2018-Jun-25 21:16N 51°10' W 127°49'413.5
2018-Jun-25 21:00N 51°07' W 127°45'713.5
2018-Jun-25 20:30N 51°02' W 127°38'713.2
2018-Jun-25 20:00N 50°58' W 127°30'612.3
2018-Jun-25 19:31N 50°54' W 127°23'612.7
2018-Jun-25 19:00N 50°51' W 127°14'7513.1
2018-Jun-25 13:16N 50°20' W 125°26'414.6
2018-Jun-25 12:59N 50°16' W 125°24'714.7
2018-Jun-25 12:30N 50°09' W 125°21'715.0
2018-Jun-25 12:00N 50°03' W 125°15'1 2.5
2018-Jun-25 11:30N 50°02' W 125°15'0 0.0
2018-Jun-25 11:00N 50°02' W 125°15'0 0.0
2018-Jun-25 10:30N 50°02' W 125°15'0 0.0
2018-Jun-25 10:00N 50°02' W 125°15'0 0.0
2018-Jun-25 09:30N 50°02' W 125°15'0 0.0
2018-Jun-25 09:00N 50°02' W 125°15'0 0.0
2018-Jun-25 08:29N 50°02' W 125°15'0 0.0
2018-Jun-25 08:00N 50°02' W 125°15'0 0.0
2018-Jun-25 07:30N 50°02' W 125°15'0 0.0
2018-Jun-25 07:00N 50°02' W 125°15'0 0.0
2018-Jun-25 06:30N 50°02' W 125°15'0 0.0
2018-Jun-25 06:00N 50°02' W 125°15'0 0.0
2018-Jun-25 05:30N 50°02' W 125°15'0 0.0
2018-Jun-25 05:00N 50°02' W 125°15'0 0.0
2018-Jun-25 04:30N 50°02' W 125°15'0 0.0
2018-Jun-25 04:00N 50°02' W 125°15'0 0.0
2018-Jun-25 03:30N 50°02' W 125°15'0 0.0
2018-Jun-25 03:00N 50°02' W 125°15'0 0.0
2018-Jun-25 02:30N 50°02' W 125°15'0 0.0
2018-Jun-25 02:00N 50°02' W 125°15'0 0.0
2018-Jun-25 01:30N 50°02' W 125°15'0 0.0
2018-Jun-25 01:00N 50°02' W 125°15'0 0.0
2018-Jun-25 00:30N 50°02' W 125°15'4 7.7
2018-Jun-25 00:00N 49°59' W 125°11'611.6
2018-Jun-24 23:28N 49°54' W 125°04'612.0
2018-Jun-24 23:00N 49°51' W 124°58'612.2
2018-Jun-24 22:30N 49°46' W 124°52'612.1
2018-Jun-24 22:01N 49°42' W 124°45'612.3
2018-Jun-24 21:31N 49°38' W 124°38'6912.1
2018-Jun-24 15:50N 48°53' W 123°18'3 9.7
2018-Jun-24 15:30N 48°51' W 123°21'511.1
2018-Jun-24 15:00N 48°45' W 123°21'5 9.9
2018-Jun-24 14:30N 48°40' W 123°21'2 4.2
2018-Jun-24 13:57N 48°40' W 123°24'0 0.0
2018-Jun-24 13:30N 48°40' W 123°24'0 0.0
2018-Jun-24 12:05N 48°40' W 123°24'0 0.0
2018-Jun-24 11:47N 48°40' W 123°24'0 0.1
2018-Jun-24 11:30N 48°40' W 123°24'0 0.0
2018-Jun-24 10:22N 48°40' W 123°24'0 0.1
2018-Jun-24 10:00N 48°40' W 123°24'0 0.1
2018-Jun-24 09:30N 48°40' W 123°24'0 0.0
2018-Jun-24 08:38N 48°40' W 123°24'0 0.0
2018-Jun-24 08:30N 48°40' W 123°24'0 0.0
2018-Jun-24 07:57N 48°40' W 123°24'0 0.0
2018-Jun-24 07:27N 48°40' W 123°24'0 0.0
2018-Jun-24 06:53N 48°40' W 123°24'0 0.0
2018-Jun-24 05:07N 48°40' W 123°24'0 1.3
2018-Jun-24 05:00N 48°40' W 123°24'813.1
2018-Jun-24 04:24N 48°33' W 123°18'613.9
2018-Jun-24 03:56N 48°30' W 123°09'511.2
2018-Jun-24 03:28N 48°26' W 123°04'3713.8
2018-Jun-24 00:49N 47°57' W 122°31'413.7
2018-Jun-24 00:30N 47°53' W 122°28'713.3
2018-Jun-24 00:00N 47°47' W 122°25'612.7
2018-Jun-23 23:30N 47°41' W 122°25'1 2.2
2018-Jun-23 23:00N 47°40' W 122°24'0 0.4
2018-Jun-23 22:30N 47°40' W 122°23'0 0.0
2018-Jun-23 22:00N 47°40' W 122°23'0 0.0
2018-Jun-23 21:30N 47°40' W 122°23'0 0.0
2018-Jun-23 21:00N 47°40' W 122°23'0 0.0
2018-Jun-23 20:30N 47°40' W 122°23'0 0.0
2018-Jun-23 20:00N 47°40' W 122°23'1 1.2
2018-Jun-23 19:30N 47°40' W 122°23'0 0.0
2018-Jun-23 19:00N 47°40' W 122°23'0 0.0
2018-Jun-23 18:30N 47°40' W 122°23'0 0.0
2018-Jun-23 18:00N 47°40' W 122°23'0 0.0
2018-Jun-23 17:30N 47°40' W 122°23'0 0.0
2018-Jun-23 17:00N 47°40' W 122°23'0 0.0
2018-Jun-23 16:30N 47°40' W 122°23'0 0.0
2018-Jun-23 16:00N 47°40' W 122°23'0 0.0
2018-Jun-23 15:30N 47°40' W 122°23'0 0.0
2018-Jun-23 15:00N 47°40' W 122°23'0 0.0
2018-Jun-23 14:30N 47°40' W 122°23'0 0.0
2018-Jun-23 14:00N 47°40' W 122°23'0 0.0
2018-Jun-23 13:30N 47°40' W 122°23'0 0.0
2018-Jun-23 13:00N 47°40' W 122°23'0 0.0
2018-Jun-23 12:30N 47°40' W 122°23'0 0.0
2018-Jun-23 12:00N 47°40' W 122°23'0 0.0
2018-Jun-23 11:30N 47°40' W 122°23'0 0.0
2018-Jun-23 11:00N 47°40' W 122°23'0 0.0
2018-Jun-23 10:30N 47°40' W 122°23'0 0.0
2018-Jun-23 10:00N 47°40' W 122°23'0 0.0
2018-Jun-23 09:30N 47°40' W 122°23'0 0.0
2018-Jun-23 09:00N 47°40' W 122°23'0 0.0
2018-Jun-23 08:30N 47°40' W 122°23'0 0.0
2018-Jun-23 08:00N 47°40' W 122°23'0 0.0
2018-Jun-23 07:30N 47°40' W 122°23'0 0.0
2018-Jun-23 07:00N 47°40' W 122°23'0 0.0
2018-Jun-23 06:30N 47°40' W 122°23'0 0.0
2018-Jun-23 06:00N 47°40' W 122°23'0 0.0
2018-Jun-23 05:30N 47°40' W 122°23'0 0.0
2018-Jun-23 05:00N 47°40' W 122°23'0 0.0
2018-Jun-23 04:30N 47°40' W 122°23'0 0.0
2018-Jun-23 04:00N 47°40' W 122°23'0 0.0
2018-Jun-23 03:30N 47°40' W 122°23'0 0.0
2018-Jun-23 03:00N 47°40' W 122°23'0 0.0
2018-Jun-23 02:30N 47°40' W 122°23'0 0.0
2018-Jun-23 02:00N 47°40' W 122°23'0 0.0
2018-Jun-23 01:30N 47°40' W 122°23'0 0.0
2018-Jun-23 01:00N 47°40' W 122°23'0 0.0
2018-Jun-23 00:29N 47°40' W 122°23'0 0.0
2018-Jun-23 00:00N 47°40' W 122°23'0 0.0
2018-Jun-22 23:30N 47°40' W 122°23'0 0.0
2018-Jun-22 23:00N 47°40' W 122°23'0 0.0
2018-Jun-22 22:28N 47°40' W 122°23'0 0.0
2018-Jun-22 22:00N 47°40' W 122°23'0 0.0
2018-Jun-22 21:30N 47°40' W 122°23'0 0.0
2018-Jun-22 21:00N 47°40' W 122°23'0 0.0
2018-Jun-22 20:30N 47°40' W 122°23'0 0.0
2018-Jun-22 19:59N 47°40' W 122°23'0 0.0
2018-Jun-22 19:30N 47°40' W 122°23'0 0.0
2018-Jun-22 19:00N 47°40' W 122°23'0 0.0
2018-Jun-22 18:30N 47°40' W 122°23'0 0.0
2018-Jun-22 18:00N 47°40' W 122°23'0 0.0
2018-Jun-22 17:30N 47°40' W 122°23'0 0.0
2018-Jun-22 16:59N 47°40' W 122°23'0 0.0
2018-Jun-22 16:30N 47°40' W 122°23'0 0.0
2018-Jun-22 15:59N 47°40' W 122°23'0 0.0
2018-Jun-22 15:30N 47°40' W 122°23'0 0.0
2018-Jun-22 15:00N 47°40' W 122°23'0 0.0
2018-Jun-22 14:30N 47°40' W 122°23'0 0.0
2018-Jun-22 14:00N 47°40' W 122°23'0 0.0
2018-Jun-22 13:30N 47°40' W 122°23'0 0.0
2018-Jun-22 13:00N 47°40' W 122°23'0 0.0
2018-Jun-22 12:30N 47°40' W 122°23'0 0.0
2018-Jun-22 12:00N 47°40' W 122°23'0 0.0
2018-Jun-22 11:30N 47°40' W 122°23'0 0.0
2018-Jun-22 11:00N 47°40' W 122°23'0 0.0
2018-Jun-22 10:30N 47°40' W 122°23'0 0.0
2018-Jun-22 10:00N 47°40' W 122°23'0 0.0
2018-Jun-22 09:30N 47°40' W 122°23'0 0.0
2018-Jun-22 09:00N 47°40' W 122°23'0 0.0
2018-Jun-22 08:30N 47°40' W 122°23'0 0.0
2018-Jun-22 08:01N 47°40' W 122°23'0 0.0
2018-Jun-22 07:30N 47°40' W 122°23'0 0.0
2018-Jun-22 07:00N 47°40' W 122°23'0 0.0
2018-Jun-22 06:30N 47°40' W 122°23'0 0.0
2018-Jun-22 06:00N 47°40' W 122°23'0 0.0
2018-Jun-22 05:30N 47°40' W 122°23'0 0.0
2018-Jun-22 05:00N 47°40' W 122°23'0 0.0
2018-Jun-22 04:30N 47°40' W 122°23'0 0.0
2018-Jun-22 04:00N 47°40' W 122°23'0 0.0
2018-Jun-22 03:30N 47°40' W 122°23'0 0.0
2018-Jun-22 03:00N 47°40' W 122°23'0 0.0
2018-Jun-22 02:30N 47°40' W 122°23'0 0.0
2018-Jun-22 02:00N 47°40' W 122°23'0 0.0
2018-Jun-22 01:30N 47°40' W 122°23'0 0.0
2018-Jun-22 01:00N 47°40' W 122°23'0 0.0
2018-Jun-22 00:30N 47°40' W 122°23'0 0.0
2018-Jun-22 00:00N 47°40' W 122°23'0 0.0
2018-Jun-21 23:30N 47°40' W 122°23'0 0.0
2018-Jun-21 23:00N 47°40' W 122°23'0 0.0
2018-Jun-21 22:30N 47°40' W 122°23'0 0.0
2018-Jun-21 22:00N 47°40' W 122°23'0 0.0
2018-Jun-21 21:30N 47°40' W 122°23'0 0.0
2018-Jun-21 21:00N 47°40' W 122°23'0 0.0
2018-Jun-21 20:30N 47°40' W 122°23'0 0.0
2018-Jun-21 20:00N 47°40' W 122°23'0 0.0
2018-Jun-21 19:30N 47°40' W 122°23'0 0.0
2018-Jun-21 19:00N 47°40' W 122°23'0 0.0
2018-Jun-21 18:30N 47°40' W 122°23'0 0.0
2018-Jun-21 18:00N 47°40' W 122°23'0 0.0
2018-Jun-21 17:30N 47°40' W 122°23'0 0.0
2018-Jun-21 17:00N 47°40' W 122°23'0 0.0
2018-Jun-21 16:30N 47°40' W 122°23'0 0.0
2018-Jun-21 16:00N 47°40' W 122°23'0 0.0
2018-Jun-21 15:30N 47°40' W 122°23'0 0.0
2018-Jun-21 15:00N 47°40' W 122°23'0 0.0
2018-Jun-21 14:30N 47°40' W 122°23'0 0.0
2018-Jun-21 14:00N 47°40' W 122°23'0 0.0
2018-Jun-21 13:30N 47°40' W 122°23'0 0.0
2018-Jun-21 13:00N 47°40' W 122°23'0 0.0
2018-Jun-21 12:30N 47°40' W 122°23'0 0.0
2018-Jun-21 12:00N 47°40' W 122°23'0 0.0
2018-Jun-21 11:30N 47°40' W 122°23'0 0.0
2018-Jun-21 11:00N 47°40' W 122°23'0 0.0
2018-Jun-21 10:30N 47°40' W 122°23'0 0.0
2018-Jun-21 10:00N 47°40' W 122°23'0 0.0
2018-Jun-21 09:30N 47°40' W 122°23'0 0.0
2018-Jun-21 09:00N 47°40' W 122°23'0 0.0
2018-Jun-21 08:30N 47°40' W 122°23'0 0.0
2018-Jun-21 08:00N 47°40' W 122°23'0 0.0
2018-Jun-21 07:30N 47°40' W 122°23'0 0.0
2018-Jun-21 07:00N 47°40' W 122°23'0 0.0
2018-Jun-21 06:30N 47°40' W 122°23'0 0.0
2018-Jun-21 06:00N 47°40' W 122°23'0 0.0
2018-Jun-21 05:30N 47°40' W 122°23'0 0.0
2018-Jun-21 05:00N 47°40' W 122°23'0 0.0
2018-Jun-21 04:30N 47°40' W 122°23'0 0.0
2018-Jun-21 04:00N 47°40' W 122°23'0 0.0
2018-Jun-21 03:30N 47°40' W 122°23'0 0.0
2018-Jun-21 03:00N 47°40' W 122°23'0 0.0
2018-Jun-21 02:30N 47°40' W 122°23'1 1.6
2018-Jun-21 02:00N 47°40' W 122°24'1 1.7
2018-Jun-21 01:30N 47°40' W 122°25'613.0
2018-Jun-21 01:00N 47°47' W 122°28'814.9
2018-Jun-21 00:30N 47°54' W 122°31'7911.0
2018-Jun-20 17:20N 48°19' W 124°23'413.1
2018-Jun-20 17:00N 48°21' W 124°29'713.3
2018-Jun-20 16:31N 48°24' W 124°37'612.3
2018-Jun-20 16:00N 48°23' W 124°47'713.6
2018-Jun-20 15:30N 48°17' W 124°51'3812.2
2018-Jun-20 12:24N 47°39' W 124°58'511.3
2018-Jun-20 11:59N 47°34' W 124°58'1911.1
2018-Jun-20 10:14N 47°15' W 124°57'310.8
2018-Jun-20 09:56N 47°12' W 124°57'511.3
2018-Jun-20 09:30N 47°07' W 124°56'511.0
2018-Jun-20 09:01N 47°02' W 124°55'611.1
2018-Jun-20 08:30N 46°56' W 124°55'611.1
2018-Jun-20 08:00N 46°51' W 124°55'611.2
2018-Jun-20 07:30N 46°45' W 124°54'611.3
2018-Jun-20 06:59N 46°39' W 124°54'1611.3
2018-Jun-20 05:35N 46°23' W 124°54'111.7
2018-Jun-20 05:30N 46°22' W 124°54'611.9
2018-Jun-20 05:01N 46°16' W 124°53'611.9
2018-Jun-20 04:31N 46°10' W 124°53'612.0
2018-Jun-20 04:00N 46°04' W 124°53'812.6
2018-Jun-20 03:20N 45°56' W 124°52'412.6
2018-Jun-20 03:00N 45°52' W 124°53'612.4
2018-Jun-20 02:31N 45°46' W 124°54'612.2
2018-Jun-20 02:00N 45°40' W 124°54'612.2
2018-Jun-20 01:31N 45°33' W 124°54'612.1
2018-Jun-20 01:01N 45°27' W 124°54'712.1
2018-Jun-20 00:27N 45°21' W 124°53'612.4
2018-Jun-20 00:00N 45°15' W 124°53'612.1
2018-Jun-19 23:31N 45°09' W 124°54'612.0
2018-Jun-19 23:00N 45°03' W 124°54'612.2
2018-Jun-19 22:30N 44°57' W 124°54'612.3
2018-Jun-19 22:00N 44°51' W 124°54'1112.7
2018-Jun-19 21:09N 44°40' W 124°55'312.6
2018-Jun-19 20:55N 44°37' W 124°55'512.7
2018-Jun-19 20:30N 44°32' W 124°56'612.8
2018-Jun-19 20:00N 44°26' W 124°57'612.7
2018-Jun-19 19:30N 44°19' W 124°57'612.5
2018-Jun-19 19:00N 44°13' W 124°58'712.8
2018-Jun-19 18:30N 44°06' W 124°58'912.5
2018-Jun-19 17:45N 43°57' W 124°58'312.3
2018-Jun-19 17:30N 43°54' W 124°58'612.6
2018-Jun-19 17:01N 43°48' W 124°58'1112.0
2018-Jun-19 16:06N 43°37' W 124°56'112.0
2018-Jun-19 16:00N 43°36' W 124°56'911.8
2018-Jun-19 15:16N 43°27' W 124°55'311.8
2018-Jun-19 15:01N 43°24' W 124°54'711.3
2018-Jun-19 14:22N 43°17' W 124°55'811.6
2018-Jun-19 13:42N 43°09' W 124°54'2211.8
2018-Jun-19 11:48N 42°47' W 124°52'411.7
2018-Jun-19 11:28N 42°43' W 124°51'511.5
2018-Jun-19 11:00N 42°38' W 124°50'911.7
2018-Jun-19 10:15N 42°29' W 124°48'24612.7
2018-Jun-18 14:47N 38°30' W 123°32'412.9
2018-Jun-18 14:30N 38°26' W 123°30'612.9
2018-Jun-18 14:01N 38°21' W 123°26'611.4
2018-Jun-18 13:31N 38°15' W 123°23'610.9
2018-Jun-18 12:59N 38°10' W 123°20'511.0
2018-Jun-18 12:30N 38°06' W 123°16'611.6
2018-Jun-18 12:00N 38°02' W 123°11'612.2
2018-Jun-18 11:30N 37°58' W 123°05'612.8
2018-Jun-18 11:00N 37°54' W 122°58'612.0
2018-Jun-18 10:31N 37°51' W 122°52'812.2
2018-Jun-18 09:53N 37°48' W 122°43'712.1
2018-Jun-18 09:17N 37°41' W 122°39'812.1
2018-Jun-18 08:40N 37°34' W 122°39'211.9
2018-Jun-18 08:29N 37°32' W 122°39'611.9
2018-Jun-18 08:01N 37°26' W 122°39'611.8
2018-Jun-18 07:30N 37°20' W 122°39'811.8
2018-Jun-18 06:49N 37°13' W 122°35'13811.7
2018-Jun-17 18:59N 35°12' W 121°11'612.0
2018-Jun-17 18:30N 35°08' W 121°07'611.7
2018-Jun-17 18:00N 35°03' W 121°03'611.5
2018-Jun-17 17:30N 34°58' W 120°59'611.5
2018-Jun-17 17:00N 34°53' W 120°55'611.8
2018-Jun-17 16:30N 34°48' W 120°51'  
Track history (hours):
 
Tides and Currents Weather Stations Pressure Air Temp Water Temp Dewpoint Dewpoint Depression Visibility Wind Speed Wind Dir Waves Ship Positions

Cielo Mare

Last reported at 2018-Jun-27 16:21 UTC. Time now 2018-Jul-19 13:36 UTC.
Position N 54°41' W 130°56'.
Warning: this ship's position is 21 days out of date.

Length 42 m; draft 2.3 m.

Type: Pleasure craft. MMSI: 538070708.

Date/timePositionNaut miles runAvg speedWind from/ knotsBaromVisibWave heightAir tempDewpointWater temp
2018-Jun-27 16:21N 54°41' W 130°56'613.8
2018-Jun-27 15:55N 54°39' W 130°47'512.6
2018-Jun-27 15:30N 54°34' W 130°43'613.0
2018-Jun-27 15:00N 54°27' W 130°40'713.0
2018-Jun-27 14:30N 54°21' W 130°36'612.3
2018-Jun-27 14:00N 54°16' W 130°31'611.5
2018-Jun-27 13:30N 54°13' W 130°22'5 9.6
2018-Jun-27 13:00N 54°18' W 130°21'2 3.5
2018-Jun-27 12:30N 54°19' W 130°19'0 0.0
2018-Jun-27 12:00N 54°19' W 130°19'0 0.0
2018-Jun-27 11:30N 54°19' W 130°19'0 0.0
2018-Jun-27 11:00N 54°19' W 130°19'0 0.0
2018-Jun-27 10:30N 54°19' W 130°19'0 0.0
2018-Jun-27 10:00N 54°19' W 130°19'0 0.0
2018-Jun-27 09:30N 54°19' W 130°19'0 0.0
2018-Jun-27 09:00N 54°19' W 130°19'0 0.0
2018-Jun-27 08:30N 54°19' W 130°19'0 0.0
2018-Jun-27 08:00N 54°19' W 130°19'0 0.0
2018-Jun-27 07:30N 54°19' W 130°19'0 0.0
2018-Jun-27 07:00N 54°19' W 130°19'0 0.0
2018-Jun-27 06:30N 54°19' W 130°19'0 0.0
2018-Jun-27 06:00N 54°19' W 130°19'0 0.0
2018-Jun-27 05:30N 54°19' W 130°19'0 0.0
2018-Jun-27 05:00N 54°19' W 130°19'0 0.0
2018-Jun-27 04:30N 54°19' W 130°19'0 0.0
2018-Jun-27 04:00N 54°19' W 130°19'0 0.0
2018-Jun-27 03:30N 54°19' W 130°19'1 1.2
2018-Jun-27 03:00N 54°19' W 130°20'4 8.7
2018-Jun-27 02:30N 54°14' W 130°21'713.0
2018-Jun-27 02:00N 54°08' W 130°19'612.4
2018-Jun-27 01:30N 54°02' W 130°15'612.7
2018-Jun-27 01:00N 53°56' W 130°11'612.0
2018-Jun-27 00:30N 53°52' W 130°04'612.2
2018-Jun-26 23:59N 53°48' W 129°57'9711.2
2018-Jun-26 15:15N 52°26' W 128°28'312.6
2018-Jun-26 15:00N 52°23' W 128°31'612.1
2018-Jun-26 14:30N 52°17' W 128°28'812.2
2018-Jun-26 13:49N 52°14' W 128°15'412.7
2018-Jun-26 13:29N 52°13' W 128°08'4 8.4
2018-Jun-26 12:58N 52°09' W 128°05'0 0.2
2018-Jun-26 12:29N 52°09' W 128°05'0 0.0
2018-Jun-26 12:00N 52°09' W 128°05'0 0.0
2018-Jun-26 11:30N 52°09' W 128°05'0 0.0
2018-Jun-26 11:00N 52°09' W 128°05'0 0.0
2018-Jun-26 10:21N 52°09' W 128°05'0 0.0
2018-Jun-26 10:00N 52°09' W 128°05'0 0.0
2018-Jun-26 09:27N 52°09' W 128°05'0 0.0
2018-Jun-26 09:00N 52°09' W 128°05'0 0.0
2018-Jun-26 08:17N 52°09' W 128°05'0 0.1
2018-Jun-26 07:53N 52°09' W 128°05'0 0.0
2018-Jun-26 07:21N 52°09' W 128°05'0 0.1
2018-Jun-26 07:00N 52°09' W 128°05'0 0.0
2018-Jun-26 06:30N 52°09' W 128°05'0 0.0
2018-Jun-26 06:00N 52°09' W 128°05'0 0.0
2018-Jun-26 05:14N 52°09' W 128°05'0 0.0
2018-Jun-26 02:48N 52°09' W 128°05'2 7.1
2018-Jun-26 02:30N 52°09' W 128°08'510.9
2018-Jun-26 02:00N 52°05' W 128°04'511.0
2018-Jun-26 01:30N 52°03' W 127°55'612.0
2018-Jun-26 01:00N 51°57' W 127°55'612.3
2018-Jun-26 00:30N 51°51' W 127°55'612.9
2018-Jun-26 00:00N 51°44' W 127°55'612.5
2018-Jun-25 23:30N 51°38' W 127°54'612.7
2018-Jun-25 23:00N 51°32' W 127°51'712.7
2018-Jun-25 22:28N 51°25' W 127°51'612.6
2018-Jun-25 21:59N 51°19' W 127°51'912.8
2018-Jun-25 21:16N 51°10' W 127°49'413.5
2018-Jun-25 21:00N 51°07' W 127°45'713.5
2018-Jun-25 20:30N 51°02' W 127°38'713.2
2018-Jun-25 20:00N 50°58' W 127°30'612.3
2018-Jun-25 19:31N 50°54' W 127°23'612.7
2018-Jun-25 19:00N 50°51' W 127°14'7513.1
2018-Jun-25 13:16N 50°20' W 125°26'414.6
2018-Jun-25 12:59N 50°16' W 125°24'714.7
2018-Jun-25 12:30N 50°09' W 125°21'715.0
2018-Jun-25 12:00N 50°03' W 125°15'1 2.5
2018-Jun-25 11:30N 50°02' W 125°15'0 0.0
2018-Jun-25 11:00N 50°02' W 125°15'0 0.0
2018-Jun-25 10:30N 50°02' W 125°15'0 0.0
2018-Jun-25 10:00N 50°02' W 125°15'0 0.0
2018-Jun-25 09:30N 50°02' W 125°15'0 0.0
2018-Jun-25 09:00N 50°02' W 125°15'0 0.0
2018-Jun-25 08:29N 50°02' W 125°15'0 0.0
2018-Jun-25 08:00N 50°02' W 125°15'0 0.0
2018-Jun-25 07:30N 50°02' W 125°15'0 0.0
2018-Jun-25 07:00N 50°02' W 125°15'0 0.0
2018-Jun-25 06:30N 50°02' W 125°15'0 0.0
2018-Jun-25 06:00N 50°02' W 125°15'0 0.0
2018-Jun-25 05:30N 50°02' W 125°15'0 0.0
2018-Jun-25 05:00N 50°02' W 125°15'0 0.0
2018-Jun-25 04:30N 50°02' W 125°15'0 0.0
2018-Jun-25 04:00N 50°02' W 125°15'0 0.0
2018-Jun-25 03:30N 50°02' W 125°15'0 0.0
2018-Jun-25 03:00N 50°02' W 125°15'0 0.0
2018-Jun-25 02:30N 50°02' W 125°15'0 0.0
2018-Jun-25 02:00N 50°02' W 125°15'0 0.0
2018-Jun-25 01:30N 50°02' W 125°15'0 0.0
2018-Jun-25 01:00N 50°02' W 125°15'0 0.0
2018-Jun-25 00:30N 50°02' W 125°15'4 7.7
2018-Jun-25 00:00N 49°59' W 125°11'611.6
2018-Jun-24 23:28N 49°54' W 125°04'612.0
2018-Jun-24 23:00N 49°51' W 124°58'612.2
2018-Jun-24 22:30N 49°46' W 124°52'612.1
2018-Jun-24 22:01N 49°42' W 124°45'612.3
2018-Jun-24 21:31N 49°38' W 124°38'6912.1
2018-Jun-24 15:50N 48°53' W 123°18'3 9.7
2018-Jun-24 15:30N 48°51' W 123°21'511.1
2018-Jun-24 15:00N 48°45' W 123°21'5 9.9
2018-Jun-24 14:30N 48°40' W 123°21'2 4.2
2018-Jun-24 13:57N 48°40' W 123°24'0 0.0
2018-Jun-24 13:30N 48°40' W 123°24'0 0.0
2018-Jun-24 12:05N 48°40' W 123°24'0 0.0
2018-Jun-24 11:47N 48°40' W 123°24'0 0.1
2018-Jun-24 11:30N 48°40' W 123°24'0 0.0
2018-Jun-24 10:22N 48°40' W 123°24'0 0.1
2018-Jun-24 10:00N 48°40' W 123°24'0 0.1
2018-Jun-24 09:30N 48°40' W 123°24'0 0.0
2018-Jun-24 08:38N 48°40' W 123°24'0 0.0
2018-Jun-24 08:30N 48°40' W 123°24'0 0.0
2018-Jun-24 07:57N 48°40' W 123°24'0 0.0
2018-Jun-24 07:27N 48°40' W 123°24'0 0.0
2018-Jun-24 06:53N 48°40' W 123°24'0 0.0
2018-Jun-24 05:07N 48°40' W 123°24'0 1.3
2018-Jun-24 05:00N 48°40' W 123°24'813.1
2018-Jun-24 04:24N 48°33' W 123°18'613.9
2018-Jun-24 03:56N 48°30' W 123°09'511.2
2018-Jun-24 03:28N 48°26' W 123°04'3713.8
2018-Jun-24 00:49N 47°57' W 122°31'413.7
2018-Jun-24 00:30N 47°53' W 122°28'713.3
2018-Jun-24 00:00N 47°47' W 122°25'612.7
2018-Jun-23 23:30N 47°41' W 122°25'1 2.2
2018-Jun-23 23:00N 47°40' W 122°24'0 0.4
2018-Jun-23 22:30N 47°40' W 122°23'0 0.0
2018-Jun-23 22:00N 47°40' W 122°23'0 0.0
2018-Jun-23 21:30N 47°40' W 122°23'0 0.0
2018-Jun-23 21:00N 47°40' W 122°23'0 0.0
2018-Jun-23 20:30N 47°40' W 122°23'0 0.0
2018-Jun-23 20:00N 47°40' W 122°23'1 1.2
2018-Jun-23 19:30N 47°40' W 122°23'0 0.0
2018-Jun-23 19:00N 47°40' W 122°23'0 0.0
2018-Jun-23 18:30N 47°40' W 122°23'0 0.0
2018-Jun-23 18:00N 47°40' W 122°23'0 0.0
2018-Jun-23 17:30N 47°40' W 122°23'0 0.0
2018-Jun-23 17:00N 47°40' W 122°23'0 0.0
2018-Jun-23 16:30N 47°40' W 122°23'0 0.0
2018-Jun-23 16:00N 47°40' W 122°23'0 0.0
2018-Jun-23 15:30N 47°40' W 122°23'0 0.0
2018-Jun-23 15:00N 47°40' W 122°23'0 0.0
2018-Jun-23 14:30N 47°40' W 122°23'0 0.0
2018-Jun-23 14:00N 47°40' W 122°23'0 0.0
2018-Jun-23 13:30N 47°40' W 122°23'0 0.0
2018-Jun-23 13:00N 47°40' W 122°23'0 0.0
2018-Jun-23 12:30N 47°40' W 122°23'0 0.0
2018-Jun-23 12:00N 47°40' W 122°23'0 0.0
2018-Jun-23 11:30N 47°40' W 122°23'0 0.0
2018-Jun-23 11:00N 47°40' W 122°23'0 0.0
2018-Jun-23 10:30N 47°40' W 122°23'0 0.0
2018-Jun-23 10:00N 47°40' W 122°23'0 0.0
2018-Jun-23 09:30N 47°40' W 122°23'0 0.0
2018-Jun-23 09:00N 47°40' W 122°23'0 0.0
2018-Jun-23 08:30N 47°40' W 122°23'0 0.0
2018-Jun-23 08:00N 47°40' W 122°23'0 0.0
2018-Jun-23 07:30N 47°40' W 122°23'0 0.0
2018-Jun-23 07:00N 47°40' W 122°23'0 0.0
2018-Jun-23 06:30N 47°40' W 122°23'0 0.0
2018-Jun-23 06:00N 47°40' W 122°23'0 0.0
2018-Jun-23 05:30N 47°40' W 122°23'0 0.0
2018-Jun-23 05:00N 47°40' W 122°23'0 0.0
2018-Jun-23 04:30N 47°40' W 122°23'0 0.0
2018-Jun-23 04:00N 47°40' W 122°23'0 0.0
2018-Jun-23 03:30N 47°40' W 122°23'0 0.0
2018-Jun-23 03:00N 47°40' W 122°23'0 0.0
2018-Jun-23 02:30N 47°40' W 122°23'0 0.0
2018-Jun-23 02:00N 47°40' W 122°23'0 0.0
2018-Jun-23 01:30N 47°40' W 122°23'0 0.0
2018-Jun-23 01:00N 47°40' W 122°23'0 0.0
2018-Jun-23 00:29N 47°40' W 122°23'0 0.0
2018-Jun-23 00:00N 47°40' W 122°23'0 0.0
2018-Jun-22 23:30N 47°40' W 122°23'0 0.0
2018-Jun-22 23:00N 47°40' W 122°23'0 0.0
2018-Jun-22 22:28N 47°40' W 122°23'0 0.0
2018-Jun-22 22:00N 47°40' W 122°23'0 0.0
2018-Jun-22 21:30N 47°40' W 122°23'0 0.0
2018-Jun-22 21:00N 47°40' W 122°23'0 0.0
2018-Jun-22 20:30N 47°40' W 122°23'0 0.0
2018-Jun-22 19:59N 47°40' W 122°23'0 0.0
2018-Jun-22 19:30N 47°40' W 122°23'0 0.0
2018-Jun-22 19:00N 47°40' W 122°23'0 0.0
2018-Jun-22 18:30N 47°40' W 122°23'0 0.0
2018-Jun-22 18:00N 47°40' W 122°23'0 0.0
2018-Jun-22 17:30N 47°40' W 122°23'0 0.0
2018-Jun-22 16:59N 47°40' W 122°23'0 0.0
2018-Jun-22 16:30N 47°40' W 122°23'0 0.0
2018-Jun-22 15:59N 47°40' W 122°23'0 0.0
2018-Jun-22 15:30N 47°40' W 122°23'0 0.0
2018-Jun-22 15:00N 47°40' W 122°23'0 0.0
2018-Jun-22 14:30N 47°40' W 122°23'0 0.0
2018-Jun-22 14:00N 47°40' W 122°23'0 0.0
2018-Jun-22 13:30N 47°40' W 122°23'0 0.0
2018-Jun-22 13:00N 47°40' W 122°23'0 0.0
2018-Jun-22 12:30N 47°40' W 122°23'0 0.0
2018-Jun-22 12:00N 47°40' W 122°23'0 0.0
2018-Jun-22 11:30N 47°40' W 122°23'0 0.0
2018-Jun-22 11:00N 47°40' W 122°23'0 0.0
2018-Jun-22 10:30N 47°40' W 122°23'0 0.0
2018-Jun-22 10:00N 47°40' W 122°23'0 0.0
2018-Jun-22 09:30N 47°40' W 122°23'0 0.0
2018-Jun-22 09:00N 47°40' W 122°23'0 0.0
2018-Jun-22 08:30N 47°40' W 122°23'0 0.0
2018-Jun-22 08:01N 47°40' W 122°23'0 0.0
2018-Jun-22 07:30N 47°40' W 122°23'0 0.0
2018-Jun-22 07:00N 47°40' W 122°23'0 0.0
2018-Jun-22 06:30N 47°40' W 122°23'0 0.0
2018-Jun-22 06:00N 47°40' W 122°23'0 0.0
2018-Jun-22 05:30N 47°40' W 122°23'0 0.0
2018-Jun-22 05:00N 47°40' W 122°23'0 0.0
2018-Jun-22 04:30N 47°40' W 122°23'0 0.0
2018-Jun-22 04:00N 47°40' W 122°23'0 0.0
2018-Jun-22 03:30N 47°40' W 122°23'0 0.0
2018-Jun-22 03:00N 47°40' W 122°23'0 0.0
2018-Jun-22 02:30N 47°40' W 122°23'0 0.0
2018-Jun-22 02:00N 47°40' W 122°23'0 0.0
2018-Jun-22 01:30N 47°40' W 122°23'0 0.0
2018-Jun-22 01:00N 47°40' W 122°23'0 0.0
2018-Jun-22 00:30N 47°40' W 122°23'0 0.0
2018-Jun-22 00:00N 47°40' W 122°23'0 0.0
2018-Jun-21 23:30N 47°40' W 122°23'0 0.0
2018-Jun-21 23:00N 47°40' W 122°23'0 0.0
2018-Jun-21 22:30N 47°40' W 122°23'0 0.0
2018-Jun-21 22:00N 47°40' W 122°23'0 0.0
2018-Jun-21 21:30N 47°40' W 122°23'0 0.0
2018-Jun-21 21:00N 47°40' W 122°23'0 0.0
2018-Jun-21 20:30N 47°40' W 122°23'0 0.0
2018-Jun-21 20:00N 47°40' W 122°23'0 0.0
2018-Jun-21 19:30N 47°40' W 122°23'0 0.0
2018-Jun-21 19:00N 47°40' W 122°23'0 0.0
2018-Jun-21 18:30N 47°40' W 122°23'0 0.0
2018-Jun-21 18:00N 47°40' W 122°23'0 0.0
2018-Jun-21 17:30N 47°40' W 122°23'0 0.0
2018-Jun-21 17:00N 47°40' W 122°23'0 0.0
2018-Jun-21 16:30N 47°40' W 122°23'0 0.0
2018-Jun-21 16:00N 47°40' W 122°23'0 0.0
2018-Jun-21 15:30N 47°40' W 122°23'0 0.0
2018-Jun-21 15:00N 47°40' W 122°23'0 0.0
2018-Jun-21 14:30N 47°40' W 122°23'0 0.0
2018-Jun-21 14:00N 47°40' W 122°23'0 0.0
2018-Jun-21 13:30N 47°40' W 122°23'0 0.0
2018-Jun-21 13:00N 47°40' W 122°23'0 0.0
2018-Jun-21 12:30N 47°40' W 122°23'0 0.0
2018-Jun-21 12:00N 47°40' W 122°23'0 0.0
2018-Jun-21 11:30N 47°40' W 122°23'0 0.0
2018-Jun-21 11:00N 47°40' W 122°23'0 0.0
2018-Jun-21 10:30N 47°40' W 122°23'0 0.0
2018-Jun-21 10:00N 47°40' W 122°23'0 0.0
2018-Jun-21 09:30N 47°40' W 122°23'0 0.0
2018-Jun-21 09:00N 47°40' W 122°23'0 0.0
2018-Jun-21 08:30N 47°40' W 122°23'0 0.0
2018-Jun-21 08:00N 47°40' W 122°23'0 0.0
2018-Jun-21 07:30N 47°40' W 122°23'0 0.0
2018-Jun-21 07:00N 47°40' W 122°23'0 0.0
2018-Jun-21 06:30N 47°40' W 122°23'0 0.0
2018-Jun-21 06:00N 47°40' W 122°23'0 0.0
2018-Jun-21 05:30N 47°40' W 122°23'0 0.0
2018-Jun-21 05:00N 47°40' W 122°23'0 0.0
2018-Jun-21 04:30N 47°40' W 122°23'0 0.0
2018-Jun-21 04:00N 47°40' W 122°23'0 0.0
2018-Jun-21 03:30N 47°40' W 122°23'0 0.0
2018-Jun-21 03:00N 47°40' W 122°23'0 0.0
2018-Jun-21 02:30N 47°40' W 122°23'1 1.6
2018-Jun-21 02:00N 47°40' W 122°24'1 1.7
2018-Jun-21 01:30N 47°40' W 122°25'613.0
2018-Jun-21 01:00N 47°47' W 122°28'814.9
2018-Jun-21 00:30N 47°54' W 122°31'7911.0
2018-Jun-20 17:20N 48°19' W 124°23'413.1
2018-Jun-20 17:00N 48°21' W 124°29'713.3
2018-Jun-20 16:31N 48°24' W 124°37'612.3
2018-Jun-20 16:00N 48°23' W 124°47'713.6
2018-Jun-20 15:30N 48°17' W 124°51'3812.2
2018-Jun-20 12:24N 47°39' W 124°58'511.3
2018-Jun-20 11:59N 47°34' W 124°58'1911.1
2018-Jun-20 10:14N 47°15' W 124°57'310.8
2018-Jun-20 09:56N 47°12' W 124°57'511.3
2018-Jun-20 09:30N 47°07' W 124°56'511.0
2018-Jun-20 09:01N 47°02' W 124°55'611.1
2018-Jun-20 08:30N 46°56' W 124°55'611.1
2018-Jun-20 08:00N 46°51' W 124°55'611.2
2018-Jun-20 07:30N 46°45' W 124°54'611.3
2018-Jun-20 06:59N 46°39' W 124°54'1611.3
2018-Jun-20 05:35N 46°23' W 124°54'111.7
2018-Jun-20 05:30N 46°22' W 124°54'611.9
2018-Jun-20 05:01N 46°16' W 124°53'611.9
2018-Jun-20 04:31N 46°10' W 124°53'612.0
2018-Jun-20 04:00N 46°04' W 124°53'812.6
2018-Jun-20 03:20N 45°56' W 124°52'412.6
2018-Jun-20 03:00N 45°52' W 124°53'612.4
2018-Jun-20 02:31N 45°46' W 124°54'612.2
2018-Jun-20 02:00N 45°40' W 124°54'612.2
2018-Jun-20 01:31N 45°33' W 124°54'612.1
2018-Jun-20 01:01N 45°27' W 124°54'712.1
2018-Jun-20 00:27N 45°21' W 124°53'612.4
2018-Jun-20 00:00N 45°15' W 124°53'612.1
2018-Jun-19 23:31N 45°09' W 124°54'612.0
2018-Jun-19 23:00N 45°03' W 124°54'612.2
2018-Jun-19 22:30N 44°57' W 124°54'612.3
2018-Jun-19 22:00N 44°51' W 124°54'1112.7
2018-Jun-19 21:09N 44°40' W 124°55'312.6
2018-Jun-19 20:55N 44°37' W 124°55'512.7
2018-Jun-19 20:30N 44°32' W 124°56'612.8
2018-Jun-19 20:00N 44°26' W 124°57'612.7
2018-Jun-19 19:30N 44°19' W 124°57'612.5
2018-Jun-19 19:00N 44°13' W 124°58'712.8
2018-Jun-19 18:30N 44°06' W 124°58'912.5
2018-Jun-19 17:45N 43°57' W 124°58'312.3
2018-Jun-19 17:30N 43°54' W 124°58'612.6
2018-Jun-19 17:01N 43°48' W 124°58'1112.0
2018-Jun-19 16:06N 43°37' W 124°56'112.0
2018-Jun-19 16:00N 43°36' W 124°56'911.8
2018-Jun-19 15:16N 43°27' W 124°55'311.8
2018-Jun-19 15:01N 43°24' W 124°54'711.3
2018-Jun-19 14:22N 43°17' W 124°55'811.6
2018-Jun-19 13:42N 43°09' W 124°54'2211.8
2018-Jun-19 11:48N 42°47' W 124°52'411.7
2018-Jun-19 11:28N 42°43' W 124°51'511.5
2018-Jun-19 11:00N 42°38' W 124°50'911.7
2018-Jun-19 10:15N 42°29' W 124°48'24612.7
2018-Jun-18 14:47N 38°30' W 123°32'412.9
2018-Jun-18 14:30N 38°26' W 123°30'612.9
2018-Jun-18 14:01N 38°21' W 123°26'611.4
2018-Jun-18 13:31N 38°15' W 123°23'610.9
2018-Jun-18 12:59N 38°10' W 123°20'511.0
2018-Jun-18 12:30N 38°06' W 123°16'611.6
2018-Jun-18 12:00N 38°02' W 123°11'612.2
2018-Jun-18 11:30N 37°58' W 123°05'612.8
2018-Jun-18 11:00N 37°54' W 122°58'612.0
2018-Jun-18 10:31N 37°51' W 122°52'812.2
2018-Jun-18 09:53N 37°48' W 122°43'712.1
2018-Jun-18 09:17N 37°41' W 122°39'812.1
2018-Jun-18 08:40N 37°34' W 122°39'211.9
2018-Jun-18 08:29N 37°32' W 122°39'611.9
2018-Jun-18 08:01N 37°26' W 122°39'611.8
2018-Jun-18 07:30N 37°20' W 122°39'811.8
2018-Jun-18 06:49N 37°13' W 122°35'13811.7
2018-Jun-17 18:59N 35°12' W 121°11'612.0
2018-Jun-17 18:30N 35°08' W 121°07'611.7
2018-Jun-17 18:00N 35°03' W 121°03'611.5
2018-Jun-17 17:30N 34°58' W 120°59'611.5
2018-Jun-17 17:00N 34°53' W 120°55'611.8
2018-Jun-17 16:30N 34°48' W 120°51'  

Dump ship's entire track history